Tetsuryumaru — JD3524 — position and weather

sailwx.info

Track history (hours):
 
Tides and Currents Weather Stations Pressure Air Temp Water Temp Dewpoint Dewpoint Depression Visibility Wind Speed Wind Dir Waves Ship Positions

Tetsuryumaru

Last reported at 2017-Dec-11 09:45 UTC. Time now 2017-Dec-12 19:50 UTC.
Position N 34°11' E 132°37'.

Length 60 m.

Type: Cargo ship. MMSI: 431004505.

Date/timePositionNaut miles runAvg speedWind from/ knotsBaromVisibWave heightAir tempDewpointWater temp
2017-Dec-11 09:45N 34°11' E 132°37'311.0
2017-Dec-11 09:30N 34°12' E 132°33'2 4.0
2017-Dec-11 08:55N 34°14' E 132°32'0 0.0
2017-Dec-11 08:29N 34°14' E 132°32'0 0.1
2017-Dec-11 07:59N 34°14' E 132°32'0 0.1
2017-Dec-11 07:29N 34°14' E 132°32'0 0.0
2017-Dec-11 06:59N 34°14' E 132°32'0 0.0
2017-Dec-11 06:29N 34°14' E 132°32'0 0.0
2017-Dec-11 05:59N 34°14' E 132°32'0 0.1
2017-Dec-11 05:26N 34°14' E 132°32'0 0.1
2017-Dec-11 04:59N 34°14' E 132°32'0 0.6
2017-Dec-11 04:24N 34°14' E 132°32'0 0.1
2017-Dec-11 03:55N 34°14' E 132°32'4 8.5
2017-Dec-11 03:30N 34°11' E 132°30'2 0.1
2017-Dec-10 01:52N 34°09' E 132°30'3 8.7
2017-Dec-10 01:30N 34°12' E 132°30'3 5.9
2017-Dec-10 01:00N 34°12' E 132°33'10311.1
2017-Dec-09 15:44N 34°30' E 134°36'312.2
2017-Dec-09 15:30N 34°31' E 134°39'612.2
2017-Dec-09 15:00N 34°33' E 134°46'612.5
2017-Dec-09 14:30N 34°36' E 134°53'611.9
2017-Dec-09 14:00N 34°38' E 135°00'611.1
2017-Dec-09 13:30N 34°36' E 135°07'611.4
2017-Dec-09 13:00N 34°36' E 135°14'611.5
2017-Dec-09 12:30N 34°36' E 135°21'510.4
2017-Dec-09 12:00N 34°35' E 135°27'1 1.6
2017-Dec-09 11:28N 34°34' E 135°27'0 0.0
2017-Dec-09 10:58N 34°34' E 135°27'0 0.0
2017-Dec-09 10:29N 34°34' E 135°27'0 0.1
2017-Dec-09 09:59N 34°34' E 135°27'0 0.1
2017-Dec-09 09:26N 34°34' E 135°27'0 0.0
2017-Dec-09 08:59N 34°34' E 135°27'0 0.0
2017-Dec-09 08:26N 34°34' E 135°27'0 0.0
2017-Dec-09 07:56N 34°34' E 135°27'1 1.3
2017-Dec-09 07:30N 34°35' E 135°27'0 0.2
2017-Dec-09 06:54N 34°35' E 135°27'0 0.0
2017-Dec-09 06:28N 34°35' E 135°27'3 6.3
2017-Dec-09 05:59N 34°36' E 135°24'5 9.9
2017-Dec-09 05:30N 34°36' E 135°18'510.5
2017-Dec-09 05:00N 34°35' E 135°12'510.4
2017-Dec-09 04:30N 34°35' E 135°05'4 8.0
2017-Dec-09 04:00N 34°37' E 135°01'4 7.1
2017-Dec-09 03:30N 34°36' E 134°57'4 7.8
2017-Dec-09 03:00N 34°35' E 134°53'5 8.2
2017-Dec-09 02:27N 34°33' E 134°47'10 0.2
2017-Dec-06 22:47N 34°43' E 134°49'2 5.5
2017-Dec-06 22:25N 34°41' E 134°49'1 2.9
2017-Dec-06 21:59N 34°42' E 134°50'0 0.0
2017-Dec-06 21:11N 34°42' E 134°50'0 0.0
2017-Dec-06 20:59N 34°42' E 134°50'  
2017-Dec-04 10:23N 33°59' E 131°37'511.3
2017-Dec-04 09:59N 33°57' E 131°32'611.2
2017-Dec-04 09:29N 33°55' E 131°26'611.1
2017-Dec-04 08:59N 33°53' E 131°19'510.3
2017-Dec-04 08:30N 33°53' E 131°13'611.2
2017-Dec-04 08:00N 33°56' E 131°08'612.0
2017-Dec-04 07:30N 33°58' E 131°01'611.4
2017-Dec-04 07:00N 33°55' E 130°56'510.1
2017-Dec-04 06:30N 33°56' E 130°50'1 1.5
2017-Dec-04 05:55N 33°55' E 130°49'0 0.0
2017-Dec-04 05:25N 33°55' E 130°49'0 0.0
2017-Dec-04 04:58N 33°55' E 130°49'0 0.0
2017-Dec-04 04:28N 33°55' E 130°49'0 0.0
2017-Dec-04 03:55N 33°55' E 130°49'0 0.0
2017-Dec-04 03:19N 33°55' E 130°49'0 0.0
2017-Dec-04 02:58N 33°55' E 130°49'0 0.0
2017-Dec-04 02:21N 33°55' E 130°49'0 0.0
2017-Dec-04 02:00N 33°55' E 130°49'0 0.0
2017-Dec-04 01:27N 33°55' E 130°49'0 0.0
2017-Dec-04 01:00N 33°55' E 130°49'0 0.0
2017-Dec-04 00:30N 33°55' E 130°49'0 0.0
2017-Dec-04 00:00N 33°55' E 130°49'0 0.0
2017-Dec-03 23:30N 33°55' E 130°49'0 0.0
2017-Dec-03 23:00N 33°55' E 130°49'0 0.0
2017-Dec-03 22:30N 33°55' E 130°49'0 0.0
2017-Dec-03 22:00N 33°55' E 130°49'0 0.2
2017-Dec-03 21:30N 33°55' E 130°49'3 6.7
2017-Dec-03 21:00N 33°56' E 130°53'3 5.5
2017-Dec-03 20:30N 33°56' E 130°56'3 6.6
2017-Dec-03 20:00N 33°59' E 130°59'4 8.7
2017-Dec-03 19:30N 33°57' E 131°04'510.6
2017-Dec-03 19:00N 33°54' E 131°10'510.8
2017-Dec-03 18:30N 33°53' E 131°16'510.6
2017-Dec-03 17:59N 33°53' E 131°22'510.2
2017-Dec-03 17:29N 33°53' E 131°28'5 9.9
2017-Dec-03 17:00N 33°53' E 131°34'37 8.4
2017-Dec-03 12:37N 34°02' E 132°17'810.5
2017-Dec-03 11:52N 34°06' E 132°25'4 9.8
2017-Dec-03 11:27N 34°08' E 132°30'0 0.1
2017-Dec-03 06:24N 34°09' E 132°30'3 8.6
2017-Dec-03 06:00N 34°12' E 132°30'4 8.2
2017-Dec-03 05:30N 34°11' E 132°35'10311.1
2017-Dec-02 20:16N 34°31' E 134°37'911.3
2017-Dec-02 19:30N 34°34' E 134°47'611.4
2017-Dec-02 18:57N 34°36' E 134°54'510.5
2017-Dec-02 18:30N 34°38' E 134°59'4 8.6
2017-Dec-02 18:00N 34°36' E 135°04'610.7
2017-Dec-02 17:29N 34°36' E 135°11'510.5
2017-Dec-02 17:00N 34°37' E 135°17'510.8
2017-Dec-02 16:30N 34°36' E 135°24'3 4.8
2017-Dec-02 15:47N 34°34' E 135°27'0 0.0
2017-Dec-02 15:26N 34°34' E 135°27'0 0.0
2017-Dec-02 14:59N 34°34' E 135°27'0 0.0
2017-Dec-02 14:29N 34°34' E 135°27'0 0.0
2017-Dec-02 13:56N 34°34' E 135°27'0 0.0
2017-Dec-02 13:26N 34°34' E 135°27'0 0.0
2017-Dec-02 12:59N 34°34' E 135°27'0 0.0
2017-Dec-02 12:29N 34°34' E 135°27'0 0.0
2017-Dec-02 11:59N 34°34' E 135°27'0 0.0
2017-Dec-02 11:26N 34°34' E 135°27'0 0.0
2017-Dec-02 10:59N 34°34' E 135°27'0 0.0
2017-Dec-02 10:26N 34°34' E 135°27'0 0.0
2017-Dec-02 09:44N 34°34' E 135°27'0 0.0
2017-Dec-02 09:29N 34°34' E 135°27'0 0.0
2017-Dec-02 08:59N 34°34' E 135°27'0 0.0
2017-Dec-02 08:26N 34°34' E 135°27'0 0.0
2017-Dec-02 07:56N 34°34' E 135°27'0 0.5
2017-Dec-02 07:22N 34°34' E 135°27'0 0.1
2017-Dec-02 06:58N 34°34' E 135°27'0 0.1
2017-Dec-02 06:28N 34°34' E 135°27'0 0.1
2017-Dec-02 05:58N 34°34' E 135°27'0 0.1
2017-Dec-02 05:27N 34°34' E 135°27'0 0.0
2017-Dec-02 05:00N 34°34' E 135°27'0 0.0
2017-Dec-02 04:30N 34°34' E 135°27'0 0.0
2017-Dec-02 03:57N 34°34' E 135°27'0 0.0
2017-Dec-02 03:27N 34°34' E 135°27'0 0.0
2017-Dec-02 03:00N 34°34' E 135°27'0 0.0
2017-Dec-02 02:27N 34°34' E 135°27'0 0.0
2017-Dec-02 02:00N 34°34' E 135°27'3 5.9
2017-Dec-02 01:30N 34°36' E 135°24'4 7.3
2017-Dec-02 01:00N 34°40' E 135°26'0 0.0
2017-Dec-02 00:30N 34°40' E 135°26'0 0.0
2017-Dec-02 00:00N 34°40' E 135°26'0 0.0
2017-Dec-01 23:30N 34°40' E 135°26'0 0.0
2017-Dec-01 23:00N 34°40' E 135°26'0 0.0
2017-Dec-01 22:30N 34°40' E 135°26'0 0.0
2017-Dec-01 22:00N 34°40' E 135°26'0 0.0
2017-Dec-01 21:30N 34°40' E 135°26'0 0.0
2017-Dec-01 21:00N 34°40' E 135°26'0 0.0
2017-Dec-01 20:29N 34°40' E 135°26'0 0.0
2017-Dec-01 19:59N 34°40' E 135°26'0 0.0
2017-Dec-01 19:29N 34°40' E 135°26'0 0.0
2017-Dec-01 18:59N 34°40' E 135°26'0 0.0
2017-Dec-01 18:29N 34°40' E 135°26'0 0.0
2017-Dec-01 17:59N 34°40' E 135°26'0 0.0
2017-Dec-01 17:29N 34°40' E 135°26'0 0.0
2017-Dec-01 16:59N 34°40' E 135°26'0 0.0
2017-Dec-01 16:29N 34°40' E 135°26'0 0.0
2017-Dec-01 15:59N 34°40' E 135°26'0 0.0
2017-Dec-01 15:29N 34°40' E 135°26'0 0.0
2017-Dec-01 14:59N 34°40' E 135°26'0 0.0
2017-Dec-01 14:29N 34°40' E 135°26'0 0.0
2017-Dec-01 13:59N 34°40' E 135°26'0 0.0
2017-Dec-01 13:29N 34°40' E 135°26'0 0.0
2017-Dec-01 12:59N 34°40' E 135°26'0 0.0
2017-Dec-01 12:29N 34°40' E 135°26'0 0.0
2017-Dec-01 11:59N 34°40' E 135°26'0 0.0
2017-Dec-01 11:29N 34°40' E 135°26'0 0.0
2017-Dec-01 10:59N 34°40' E 135°26'0 0.0
2017-Dec-01 10:29N 34°40' E 135°26'0 0.0
2017-Dec-01 09:59N 34°40' E 135°26'  
Track history (hours):
 
Tides and Currents Weather Stations Pressure Air Temp Water Temp Dewpoint Dewpoint Depression Visibility Wind Speed Wind Dir Waves Ship Positions

Tetsuryumaru

Last reported at 2017-Dec-11 09:45 UTC. Time now 2017-Dec-12 19:50 UTC.
Position N 34°11' E 132°37'.

Length 60 m.

Type: Cargo ship. MMSI: 431004505.

Date/timePositionNaut miles runAvg speedWind from/ knotsBaromVisibWave heightAir tempDewpointWater temp
2017-Dec-11 09:45N 34°11' E 132°37'311.0
2017-Dec-11 09:30N 34°12' E 132°33'2 4.0
2017-Dec-11 08:55N 34°14' E 132°32'0 0.0
2017-Dec-11 08:29N 34°14' E 132°32'0 0.1
2017-Dec-11 07:59N 34°14' E 132°32'0 0.1
2017-Dec-11 07:29N 34°14' E 132°32'0 0.0
2017-Dec-11 06:59N 34°14' E 132°32'0 0.0
2017-Dec-11 06:29N 34°14' E 132°32'0 0.0
2017-Dec-11 05:59N 34°14' E 132°32'0 0.1
2017-Dec-11 05:26N 34°14' E 132°32'0 0.1
2017-Dec-11 04:59N 34°14' E 132°32'0 0.6
2017-Dec-11 04:24N 34°14' E 132°32'0 0.1
2017-Dec-11 03:55N 34°14' E 132°32'4 8.5
2017-Dec-11 03:30N 34°11' E 132°30'2 0.1
2017-Dec-10 01:52N 34°09' E 132°30'3 8.7
2017-Dec-10 01:30N 34°12' E 132°30'3 5.9
2017-Dec-10 01:00N 34°12' E 132°33'10311.1
2017-Dec-09 15:44N 34°30' E 134°36'312.2
2017-Dec-09 15:30N 34°31' E 134°39'612.2
2017-Dec-09 15:00N 34°33' E 134°46'612.5
2017-Dec-09 14:30N 34°36' E 134°53'611.9
2017-Dec-09 14:00N 34°38' E 135°00'611.1
2017-Dec-09 13:30N 34°36' E 135°07'611.4
2017-Dec-09 13:00N 34°36' E 135°14'611.5
2017-Dec-09 12:30N 34°36' E 135°21'510.4
2017-Dec-09 12:00N 34°35' E 135°27'1 1.6
2017-Dec-09 11:28N 34°34' E 135°27'0 0.0
2017-Dec-09 10:58N 34°34' E 135°27'0 0.0
2017-Dec-09 10:29N 34°34' E 135°27'0 0.1
2017-Dec-09 09:59N 34°34' E 135°27'0 0.1
2017-Dec-09 09:26N 34°34' E 135°27'0 0.0
2017-Dec-09 08:59N 34°34' E 135°27'0 0.0
2017-Dec-09 08:26N 34°34' E 135°27'0 0.0
2017-Dec-09 07:56N 34°34' E 135°27'1 1.3
2017-Dec-09 07:30N 34°35' E 135°27'0 0.2
2017-Dec-09 06:54N 34°35' E 135°27'0 0.0
2017-Dec-09 06:28N 34°35' E 135°27'3 6.3
2017-Dec-09 05:59N 34°36' E 135°24'5 9.9
2017-Dec-09 05:30N 34°36' E 135°18'510.5
2017-Dec-09 05:00N 34°35' E 135°12'510.4
2017-Dec-09 04:30N 34°35' E 135°05'4 8.0
2017-Dec-09 04:00N 34°37' E 135°01'4 7.1
2017-Dec-09 03:30N 34°36' E 134°57'4 7.8
2017-Dec-09 03:00N 34°35' E 134°53'5 8.2
2017-Dec-09 02:27N 34°33' E 134°47'10 0.2
2017-Dec-06 22:47N 34°43' E 134°49'2 5.5
2017-Dec-06 22:25N 34°41' E 134°49'1 2.9
2017-Dec-06 21:59N 34°42' E 134°50'0 0.0
2017-Dec-06 21:11N 34°42' E 134°50'0 0.0
2017-Dec-06 20:59N 34°42' E 134°50'  
2017-Dec-04 10:23N 33°59' E 131°37'511.3
2017-Dec-04 09:59N 33°57' E 131°32'611.2
2017-Dec-04 09:29N 33°55' E 131°26'611.1
2017-Dec-04 08:59N 33°53' E 131°19'510.3
2017-Dec-04 08:30N 33°53' E 131°13'611.2
2017-Dec-04 08:00N 33°56' E 131°08'612.0
2017-Dec-04 07:30N 33°58' E 131°01'611.4
2017-Dec-04 07:00N 33°55' E 130°56'510.1
2017-Dec-04 06:30N 33°56' E 130°50'1 1.5
2017-Dec-04 05:55N 33°55' E 130°49'0 0.0
2017-Dec-04 05:25N 33°55' E 130°49'0 0.0
2017-Dec-04 04:58N 33°55' E 130°49'0 0.0
2017-Dec-04 04:28N 33°55' E 130°49'0 0.0
2017-Dec-04 03:55N 33°55' E 130°49'0 0.0
2017-Dec-04 03:19N 33°55' E 130°49'0 0.0
2017-Dec-04 02:58N 33°55' E 130°49'0 0.0
2017-Dec-04 02:21N 33°55' E 130°49'0 0.0
2017-Dec-04 02:00N 33°55' E 130°49'0 0.0
2017-Dec-04 01:27N 33°55' E 130°49'0 0.0
2017-Dec-04 01:00N 33°55' E 130°49'0 0.0
2017-Dec-04 00:30N 33°55' E 130°49'0 0.0
2017-Dec-04 00:00N 33°55' E 130°49'0 0.0
2017-Dec-03 23:30N 33°55' E 130°49'0 0.0
2017-Dec-03 23:00N 33°55' E 130°49'0 0.0
2017-Dec-03 22:30N 33°55' E 130°49'0 0.0
2017-Dec-03 22:00N 33°55' E 130°49'0 0.2
2017-Dec-03 21:30N 33°55' E 130°49'3 6.7
2017-Dec-03 21:00N 33°56' E 130°53'3 5.5
2017-Dec-03 20:30N 33°56' E 130°56'3 6.6
2017-Dec-03 20:00N 33°59' E 130°59'4 8.7
2017-Dec-03 19:30N 33°57' E 131°04'510.6
2017-Dec-03 19:00N 33°54' E 131°10'510.8
2017-Dec-03 18:30N 33°53' E 131°16'510.6
2017-Dec-03 17:59N 33°53' E 131°22'510.2
2017-Dec-03 17:29N 33°53' E 131°28'5 9.9
2017-Dec-03 17:00N 33°53' E 131°34'37 8.4
2017-Dec-03 12:37N 34°02' E 132°17'810.5
2017-Dec-03 11:52N 34°06' E 132°25'4 9.8
2017-Dec-03 11:27N 34°08' E 132°30'0 0.1
2017-Dec-03 06:24N 34°09' E 132°30'3 8.6
2017-Dec-03 06:00N 34°12' E 132°30'4 8.2
2017-Dec-03 05:30N 34°11' E 132°35'10311.1
2017-Dec-02 20:16N 34°31' E 134°37'911.3
2017-Dec-02 19:30N 34°34' E 134°47'611.4
2017-Dec-02 18:57N 34°36' E 134°54'510.5
2017-Dec-02 18:30N 34°38' E 134°59'4 8.6
2017-Dec-02 18:00N 34°36' E 135°04'610.7
2017-Dec-02 17:29N 34°36' E 135°11'510.5
2017-Dec-02 17:00N 34°37' E 135°17'510.8
2017-Dec-02 16:30N 34°36' E 135°24'3 4.8
2017-Dec-02 15:47N 34°34' E 135°27'0 0.0
2017-Dec-02 15:26N 34°34' E 135°27'0 0.0
2017-Dec-02 14:59N 34°34' E 135°27'0 0.0
2017-Dec-02 14:29N 34°34' E 135°27'0 0.0
2017-Dec-02 13:56N 34°34' E 135°27'0 0.0
2017-Dec-02 13:26N 34°34' E 135°27'0 0.0
2017-Dec-02 12:59N 34°34' E 135°27'0 0.0
2017-Dec-02 12:29N 34°34' E 135°27'0 0.0
2017-Dec-02 11:59N 34°34' E 135°27'0 0.0
2017-Dec-02 11:26N 34°34' E 135°27'0 0.0
2017-Dec-02 10:59N 34°34' E 135°27'0 0.0
2017-Dec-02 10:26N 34°34' E 135°27'0 0.0
2017-Dec-02 09:44N 34°34' E 135°27'0 0.0
2017-Dec-02 09:29N 34°34' E 135°27'0 0.0
2017-Dec-02 08:59N 34°34' E 135°27'0 0.0
2017-Dec-02 08:26N 34°34' E 135°27'0 0.0
2017-Dec-02 07:56N 34°34' E 135°27'0 0.5
2017-Dec-02 07:22N 34°34' E 135°27'0 0.1
2017-Dec-02 06:58N 34°34' E 135°27'0 0.1
2017-Dec-02 06:28N 34°34' E 135°27'0 0.1
2017-Dec-02 05:58N 34°34' E 135°27'0 0.1
2017-Dec-02 05:27N 34°34' E 135°27'0 0.0
2017-Dec-02 05:00N 34°34' E 135°27'0 0.0
2017-Dec-02 04:30N 34°34' E 135°27'0 0.0
2017-Dec-02 03:57N 34°34' E 135°27'0 0.0
2017-Dec-02 03:27N 34°34' E 135°27'0 0.0
2017-Dec-02 03:00N 34°34' E 135°27'0 0.0
2017-Dec-02 02:27N 34°34' E 135°27'0 0.0
2017-Dec-02 02:00N 34°34' E 135°27'3 5.9
2017-Dec-02 01:30N 34°36' E 135°24'4 7.3
2017-Dec-02 01:00N 34°40' E 135°26'0 0.0
2017-Dec-02 00:30N 34°40' E 135°26'0 0.0
2017-Dec-02 00:00N 34°40' E 135°26'0 0.0
2017-Dec-01 23:30N 34°40' E 135°26'0 0.0
2017-Dec-01 23:00N 34°40' E 135°26'0 0.0
2017-Dec-01 22:30N 34°40' E 135°26'0 0.0
2017-Dec-01 22:00N 34°40' E 135°26'0 0.0
2017-Dec-01 21:30N 34°40' E 135°26'0 0.0
2017-Dec-01 21:00N 34°40' E 135°26'0 0.0
2017-Dec-01 20:29N 34°40' E 135°26'0 0.0
2017-Dec-01 19:59N 34°40' E 135°26'0 0.0
2017-Dec-01 19:29N 34°40' E 135°26'0 0.0
2017-Dec-01 18:59N 34°40' E 135°26'0 0.0
2017-Dec-01 18:29N 34°40' E 135°26'0 0.0
2017-Dec-01 17:59N 34°40' E 135°26'0 0.0
2017-Dec-01 17:29N 34°40' E 135°26'0 0.0
2017-Dec-01 16:59N 34°40' E 135°26'0 0.0
2017-Dec-01 16:29N 34°40' E 135°26'0 0.0
2017-Dec-01 15:59N 34°40' E 135°26'0 0.0
2017-Dec-01 15:29N 34°40' E 135°26'0 0.0
2017-Dec-01 14:59N 34°40' E 135°26'0 0.0
2017-Dec-01 14:29N 34°40' E 135°26'0 0.0
2017-Dec-01 13:59N 34°40' E 135°26'0 0.0
2017-Dec-01 13:29N 34°40' E 135°26'0 0.0
2017-Dec-01 12:59N 34°40' E 135°26'0 0.0
2017-Dec-01 12:29N 34°40' E 135°26'0 0.0
2017-Dec-01 11:59N 34°40' E 135°26'0 0.0
2017-Dec-01 11:29N 34°40' E 135°26'0 0.0
2017-Dec-01 10:59N 34°40' E 135°26'0 0.0
2017-Dec-01 10:29N 34°40' E 135°26'0 0.0
2017-Dec-01 09:59N 34°40' E 135°26'  

Dump ship's entire track history